sensor_id;sensor_type;location;lat;lon;timestamp;P1;durP1;ratioP1;P2;durP2;ratioP2
34278;SDS011;20538;51.528;9.942;2023-04-03T00:02:08;6.88;;;1.65;;
34278;SDS011;20538;51.528;9.942;2023-04-03T00:04:34;11.25;;;2.30;;
34278;SDS011;20538;51.528;9.942;2023-04-03T00:07:00;6.80;;;1.60;;
34278;SDS011;20538;51.528;9.942;2023-04-03T00:09:25;6.97;;;1.70;;
34278;SDS011;20538;51.528;9.942;2023-04-03T00:11:51;8.02;;;1.77;;
34278;SDS011;20538;51.528;9.942;2023-04-03T00:14:16;6.45;;;1.35;;
34278;SDS011;20538;51.528;9.942;2023-04-03T00:16:42;6.10;;;1.40;;
34278;SDS011;20538;51.528;9.942;2023-04-03T00:19:08;6.35;;;1.50;;
34278;SDS011;20538;51.528;9.942;2023-04-03T00:21:36;8.32;;;1.63;;
34278;SDS011;20538;51.528;9.942;2023-04-03T00:24:02;7.25;;;1.45;;
34278;SDS011;20538;51.528;9.942;2023-04-03T00:26:28;4.88;;;1.70;;
34278;SDS011;20538;51.528;9.942;2023-04-03T00:28:53;4.32;;;1.55;;
34278;SDS011;20538;51.528;9.942;2023-04-03T00:31:19;4.22;;;1.38;;
34278;SDS011;20538;51.528;9.942;2023-04-03T00:33:47;4.32;;;1.50;;
34278;SDS011;20538;51.528;9.942;2023-04-03T00:36:13;5.90;;;1.50;;
34278;SDS011;20538;51.528;9.942;2023-04-03T00:38:39;6.47;;;1.50;;
34278;SDS011;20538;51.528;9.942;2023-04-03T00:41:05;4.55;;;1.50;;
34278;SDS011;20538;51.528;9.942;2023-04-03T00:43:31;4.35;;;1.02;;
34278;SDS011;20538;51.528;9.942;2023-04-03T00:45:57;7.55;;;1.70;;
34278;SDS011;20538;51.528;9.942;2023-04-03T00:48:28;5.72;;;2.13;;
34278;SDS011;20538;51.528;9.942;2023-04-03T00:50:57;8.10;;;1.40;;
34278;SDS011;20538;51.528;9.942;2023-04-03T00:53:58;4.05;;;1.67;;
34278;SDS011;20538;51.528;9.942;2023-04-03T00:56:19;6.50;;;1.70;;
34278;SDS011;20538;51.528;9.942;2023-04-03T00:58:50;3.30;;;1.40;;
34278;SDS011;20538;51.528;9.942;2023-04-03T01:01:24;7.18;;;2.17;;
34278;SDS011;20538;51.528;9.942;2023-04-03T01:03:52;5.75;;;1.90;;
34278;SDS011;20538;51.528;9.942;2023-04-03T01:06:20;10.82;;;2.35;;
34278;SDS011;20538;51.528;9.942;2023-04-03T01:08:50;8.13;;;2.17;;
34278;SDS011;20538;51.528;9.942;2023-04-03T01:11:16;9.00;;;1.48;;
34278;SDS011;20538;51.528;9.942;2023-04-03T01:13:42;5.85;;;2.38;;
34278;SDS011;20538;51.528;9.942;2023-04-03T01:16:08;4.90;;;1.45;;
34278;SDS011;20538;51.528;9.942;2023-04-03T01:18:35;7.38;;;1.83;;
34278;SDS011;20538;51.528;9.942;2023-04-03T01:23:35;7.30;;;1.80;;
34278;SDS011;20538;51.528;9.942;2023-04-03T01:26:05;6.35;;;1.45;;
34278;SDS011;20538;51.528;9.942;2023-04-03T01:28:32;5.45;;;1.30;;
34278;SDS011;20538;51.528;9.942;2023-04-03T01:31:06;6.43;;;1.40;;
34278;SDS011;20538;51.528;9.942;2023-04-03T01:33:50;6.82;;;1.77;;
34278;SDS011;20538;51.528;9.942;2023-04-03T01:36:20;12.45;;;2.00;;
34278;SDS011;20538;51.528;9.942;2023-04-03T01:38:51;4.22;;;1.55;;
34278;SDS011;20538;51.528;9.942;2023-04-03T01:41:18;7.45;;;1.55;;
34278;SDS011;20538;51.528;9.942;2023-04-03T01:43:45;6.72;;;1.60;;
34278;SDS011;20538;51.528;9.942;2023-04-03T01:46:11;9.00;;;1.98;;
34278;SDS011;20538;51.528;9.942;2023-04-03T01:48:37;4.75;;;1.60;;
34278;SDS011;20538;51.528;9.942;2023-04-03T01:51:03;10.40;;;1.50;;
34278;SDS011;20538;51.528;9.942;2023-04-03T01:53:29;4.50;;;1.42;;
34278;SDS011;20538;51.528;9.942;2023-04-03T01:55:55;6.70;;;1.60;;
34278;SDS011;20538;51.528;9.942;2023-04-03T01:58:20;6.38;;;1.67;;
34278;SDS011;20538;51.528;9.942;2023-04-03T02:00:46;3.95;;;1.52;;
34278;SDS011;20538;51.528;9.942;2023-04-03T02:03:12;8.80;;;2.08;;
34278;SDS011;20538;51.528;9.942;2023-04-03T02:05:37;7.50;;;1.83;;
34278;SDS011;20538;51.528;9.942;2023-04-03T02:08:06;8.88;;;1.48;;
34278;SDS011;20538;51.528;9.942;2023-04-03T02:10:32;8.00;;;1.83;;
34278;SDS011;20538;51.528;9.942;2023-04-03T02:12:58;5.18;;;1.85;;
34278;SDS011;20538;51.528;9.942;2023-04-03T02:15:23;6.22;;;1.92;;
34278;SDS011;20538;51.528;9.942;2023-04-03T02:17:49;9.98;;;2.20;;
34278;SDS011;20538;51.528;9.942;2023-04-03T02:20:15;5.82;;;1.90;;
34278;SDS011;20538;51.528;9.942;2023-04-03T02:22:41;8.52;;;2.10;;
34278;SDS011;20538;51.528;9.942;2023-04-03T02:25:06;6.88;;;1.90;;
34278;SDS011;20538;51.528;9.942;2023-04-03T02:27:32;11.30;;;2.33;;
34278;SDS011;20538;51.528;9.942;2023-04-03T02:29:58;7.80;;;1.92;;
34278;SDS011;20538;51.528;9.942;2023-04-03T02:32:23;8.15;;;1.98;;
34278;SDS011;20538;51.528;9.942;2023-04-03T02:34:49;7.38;;;2.20;;
34278;SDS011;20538;51.528;9.942;2023-04-03T02:37:15;5.35;;;2.00;;
34278;SDS011;20538;51.528;9.942;2023-04-03T02:39:40;9.27;;;2.78;;
34278;SDS011;20538;51.528;9.942;2023-04-03T02:42:06;6.47;;;2.08;;
34278;SDS011;20538;51.528;9.942;2023-04-03T02:44:32;6.95;;;2.35;;
34278;SDS011;20538;51.528;9.942;2023-04-03T02:46:58;9.32;;;2.40;;
34278;SDS011;20538;51.528;9.942;2023-04-03T02:49:23;7.78;;;1.90;;
34278;SDS011;20538;51.528;9.942;2023-04-03T02:51:49;5.25;;;1.80;;
34278;SDS011;20538;51.528;9.942;2023-04-03T02:54:16;10.27;;;2.35;;
34278;SDS011;20538;51.528;9.942;2023-04-03T02:56:42;12.60;;;2.22;;
34278;SDS011;20538;51.528;9.942;2023-04-03T02:59:07;9.13;;;2.38;;
34278;SDS011;20538;51.528;9.942;2023-04-03T03:01:33;3.80;;;2.00;;
34278;SDS011;20538;51.528;9.942;2023-04-03T03:03:59;4.82;;;2.03;;
34278;SDS011;20538;51.528;9.942;2023-04-03T03:06:25;13.70;;;2.13;;
34278;SDS011;20538;51.528;9.942;2023-04-03T03:08:50;9.90;;;2.70;;
34278;SDS011;20538;51.528;9.942;2023-04-03T03:11:16;8.93;;;2.42;;
34278;SDS011;20538;51.528;9.942;2023-04-03T03:13:42;4.35;;;1.60;;
34278;SDS011;20538;51.528;9.942;2023-04-03T03:16:08;15.27;;;3.53;;
34278;SDS011;20538;51.528;9.942;2023-04-03T03:18:33;7.07;;;2.10;;
34278;SDS011;20538;51.528;9.942;2023-04-03T03:21:00;8.68;;;1.92;;
34278;SDS011;20538;51.528;9.942;2023-04-03T03:23:28;8.45;;;2.33;;
34278;SDS011;20538;51.528;9.942;2023-04-03T03:25:59;21.50;;;5.13;;
34278;SDS011;20538;51.528;9.942;2023-04-03T03:28:27;6.22;;;1.95;;
34278;SDS011;20538;51.528;9.942;2023-04-03T03:30:53;9.95;;;2.78;;
34278;SDS011;20538;51.528;9.942;2023-04-03T03:33:19;8.77;;;2.45;;
34278;SDS011;20538;51.528;9.942;2023-04-03T03:35:45;12.65;;;2.35;;
34278;SDS011;20538;51.528;9.942;2023-04-03T03:38:11;6.50;;;2.40;;
34278;SDS011;20538;51.528;9.942;2023-04-03T03:40:36;8.23;;;2.55;;
34278;SDS011;20538;51.528;9.942;2023-04-03T03:43:02;13.82;;;2.83;;
34278;SDS011;20538;51.528;9.942;2023-04-03T03:45:28;9.02;;;1.80;;
34278;SDS011;20538;51.528;9.942;2023-04-03T03:47:55;8.10;;;2.95;;
34278;SDS011;20538;51.528;9.942;2023-04-03T03:50:20;7.38;;;2.03;;
34278;SDS011;20538;51.528;9.942;2023-04-03T03:52:46;6.97;;;2.08;;
34278;SDS011;20538;51.528;9.942;2023-04-03T03:55:11;7.50;;;2.30;;
34278;SDS011;20538;51.528;9.942;2023-04-03T03:57:37;9.80;;;2.38;;
34278;SDS011;20538;51.528;9.942;2023-04-03T04:00:03;12.13;;;2.35;;
34278;SDS011;20538;51.528;9.942;2023-04-03T04:02:30;10.88;;;2.30;;
34278;SDS011;20538;51.528;9.942;2023-04-03T04:04:55;9.68;;;2.33;;
34278;SDS011;20538;51.528;9.942;2023-04-03T04:07:21;6.90;;;1.60;;
34278;SDS011;20538;51.528;9.942;2023-04-03T04:09:47;6.82;;;2.03;;
34278;SDS011;20538;51.528;9.942;2023-04-03T04:12:13;7.75;;;2.13;;
34278;SDS011;20538;51.528;9.942;2023-04-03T04:14:39;9.27;;;2.55;;
34278;SDS011;20538;51.528;9.942;2023-04-03T04:17:05;9.95;;;2.45;;
34278;SDS011;20538;51.528;9.942;2023-04-03T04:19:30;5.53;;;2.00;;
34278;SDS011;20538;51.528;9.942;2023-04-03T04:21:56;8.18;;;2.40;;
34278;SDS011;20538;51.528;9.942;2023-04-03T04:24:21;9.88;;;2.20;;
34278;SDS011;20538;51.528;9.942;2023-04-03T04:26:50;7.45;;;3.00;;
34278;SDS011;20538;51.528;9.942;2023-04-03T04:29:16;11.70;;;2.65;;
34278;SDS011;20538;51.528;9.942;2023-04-03T04:31:41;6.65;;;2.22;;
34278;SDS011;20538;51.528;9.942;2023-04-03T04:34:07;10.32;;;3.13;;
34278;SDS011;20538;51.528;9.942;2023-04-03T04:36:32;14.50;;;2.28;;
34278;SDS011;20538;51.528;9.942;2023-04-03T04:38:58;5.18;;;1.98;;
34278;SDS011;20538;51.528;9.942;2023-04-03T04:41:24;8.88;;;2.30;;
34278;SDS011;20538;51.528;9.942;2023-04-03T04:43:51;8.68;;;2.25;;
34278;SDS011;20538;51.528;9.942;2023-04-03T04:46:17;12.57;;;2.10;;
34278;SDS011;20538;51.528;9.942;2023-04-03T04:48:43;12.73;;;2.55;;
34278;SDS011;20538;51.528;9.942;2023-04-03T04:51:09;14.00;;;2.70;;
34278;SDS011;20538;51.528;9.942;2023-04-03T04:53:35;8.93;;;2.67;;
34278;SDS011;20538;51.528;9.942;2023-04-03T04:56:01;11.00;;;2.20;;
34278;SDS011;20538;51.528;9.942;2023-04-03T04:58:27;8.90;;;3.15;;
34278;SDS011;20538;51.528;9.942;2023-04-03T05:01:02;7.80;;;2.42;;
34278;SDS011;20538;51.528;9.942;2023-04-03T05:03:29;14.55;;;2.95;;
34278;SDS011;20538;51.528;9.942;2023-04-03T05:05:55;9.60;;;2.75;;
34278;SDS011;20538;51.528;9.942;2023-04-03T05:08:21;13.25;;;2.95;;
34278;SDS011;20538;51.528;9.942;2023-04-03T05:10:47;8.55;;;2.63;;
34278;SDS011;20538;51.528;9.942;2023-04-03T05:13:13;4.18;;;2.15;;
34278;SDS011;20538;51.528;9.942;2023-04-03T05:15:39;9.00;;;3.45;;
34278;SDS011;20538;51.528;9.942;2023-04-03T05:18:05;10.50;;;2.80;;
34278;SDS011;20538;51.528;9.942;2023-04-03T05:20:34;10.55;;;2.90;;
34278;SDS011;20538;51.528;9.942;2023-04-03T05:23:00;7.05;;;2.72;;
34278;SDS011;20538;51.528;9.942;2023-04-03T05:25:25;15.48;;;2.42;;
34278;SDS011;20538;51.528;9.942;2023-04-03T05:27:52;9.18;;;2.88;;
34278;SDS011;20538;51.528;9.942;2023-04-03T05:30:17;6.93;;;2.65;;
34278;SDS011;20538;51.528;9.942;2023-04-03T05:32:43;12.57;;;2.83;;
34278;SDS011;20538;51.528;9.942;2023-04-03T05:35:09;10.18;;;2.78;;
34278;SDS011;20538;51.528;9.942;2023-04-03T05:37:35;9.45;;;2.88;;
34278;SDS011;20538;51.528;9.942;2023-04-03T05:40:02;11.07;;;3.10;;
34278;SDS011;20538;51.528;9.942;2023-04-03T05:42:28;7.10;;;3.10;;
34278;SDS011;20538;51.528;9.942;2023-04-03T05:44:54;9.82;;;2.85;;
34278;SDS011;20538;51.528;9.942;2023-04-03T05:47:20;11.25;;;3.30;;
34278;SDS011;20538;51.528;9.942;2023-04-03T05:49:45;16.33;;;2.90;;
34278;SDS011;20538;51.528;9.942;2023-04-03T05:52:16;8.35;;;2.85;;
34278;SDS011;20538;51.528;9.942;2023-04-03T05:54:48;12.55;;;3.47;;
34278;SDS011;20538;51.528;9.942;2023-04-03T05:57:14;10.43;;;3.28;;
34278;SDS011;20538;51.528;9.942;2023-04-03T05:59:41;5.70;;;2.83;;
34278;SDS011;20538;51.528;9.942;2023-04-03T06:02:14;4.50;;;2.65;;
34278;SDS011;20538;51.528;9.942;2023-04-03T06:04:42;13.95;;;2.95;;
34278;SDS011;20538;51.528;9.942;2023-04-03T06:07:10;6.38;;;2.35;;
34278;SDS011;20538;51.528;9.942;2023-04-03T06:09:39;11.10;;;3.00;;
34278;SDS011;20538;51.528;9.942;2023-04-03T06:12:04;12.48;;;2.78;;
34278;SDS011;20538;51.528;9.942;2023-04-03T06:14:30;10.20;;;2.55;;
34278;SDS011;20538;51.528;9.942;2023-04-03T06:16:56;5.45;;;3.15;;
34278;SDS011;20538;51.528;9.942;2023-04-03T06:19:22;7.57;;;2.50;;
34278;SDS011;20538;51.528;9.942;2023-04-03T06:21:48;11.00;;;2.70;;
34278;SDS011;20538;51.528;9.942;2023-04-03T06:24:15;6.68;;;2.30;;
34278;SDS011;20538;51.528;9.942;2023-04-03T06:26:42;10.73;;;2.65;;
34278;SDS011;20538;51.528;9.942;2023-04-03T06:29:08;4.32;;;2.28;;
34278;SDS011;20538;51.528;9.942;2023-04-03T06:31:34;11.32;;;2.47;;
34278;SDS011;20538;51.528;9.942;2023-04-03T06:34:01;4.75;;;2.20;;
34278;SDS011;20538;51.528;9.942;2023-04-03T06:36:28;6.43;;;2.10;;
34278;SDS011;20538;51.528;9.942;2023-04-03T06:38:54;4.78;;;2.03;;
34278;SDS011;20538;51.528;9.942;2023-04-03T06:41:20;17.52;;;2.75;;
34278;SDS011;20538;51.528;9.942;2023-04-03T06:43:46;8.10;;;2.28;;
34278;SDS011;20538;51.528;9.942;2023-04-03T06:46:13;12.57;;;2.28;;
34278;SDS011;20538;51.528;9.942;2023-04-03T06:48:44;6.40;;;2.15;;
34278;SDS011;20538;51.528;9.942;2023-04-03T06:51:28;7.10;;;1.98;;
34278;SDS011;20538;51.528;9.942;2023-04-03T06:53:56;7.18;;;2.25;;
34278;SDS011;20538;51.528;9.942;2023-04-03T06:56:23;7.90;;;2.25;;
34278;SDS011;20538;51.528;9.942;2023-04-03T06:58:50;5.07;;;1.92;;
34278;SDS011;20538;51.528;9.942;2023-04-03T07:01:16;8.73;;;1.83;;
34278;SDS011;20538;51.528;9.942;2023-04-03T07:03:44;4.57;;;1.80;;
34278;SDS011;20538;51.528;9.942;2023-04-03T07:06:11;3.28;;;1.48;;
34278;SDS011;20538;51.528;9.942;2023-04-03T07:08:39;8.68;;;1.80;;
34278;SDS011;20538;51.528;9.942;2023-04-03T07:11:05;7.35;;;1.55;;
34278;SDS011;20538;51.528;9.942;2023-04-03T07:13:31;6.45;;;2.25;;
34278;SDS011;20538;51.528;9.942;2023-04-03T07:15:57;4.90;;;1.70;;
34278;SDS011;20538;51.528;9.942;2023-04-03T07:18:23;3.38;;;1.60;;
34278;SDS011;20538;51.528;9.942;2023-04-03T07:20:49;8.18;;;1.60;;
34278;SDS011;20538;51.528;9.942;2023-04-03T07:23:16;3.83;;;1.42;;
34278;SDS011;20538;51.528;9.942;2023-04-03T07:25:43;7.47;;;2.05;;
34278;SDS011;20538;51.528;9.942;2023-04-03T07:28:09;3.05;;;0.90;;
34278;SDS011;20538;51.528;9.942;2023-04-03T07:30:41;6.57;;;2.78;;
34278;SDS011;20538;51.528;9.942;2023-04-03T07:33:11;7.05;;;1.40;;
34278;SDS011;20538;51.528;9.942;2023-04-03T07:35:38;6.38;;;1.95;;
34278;SDS011;20538;51.528;9.942;2023-04-03T07:38:04;5.75;;;1.63;;
34278;SDS011;20538;51.528;9.942;2023-04-03T07:40:30;5.15;;;1.65;;
34278;SDS011;20538;51.528;9.942;2023-04-03T07:42:56;8.43;;;2.78;;
34278;SDS011;20538;51.528;9.942;2023-04-03T07:45:22;4.63;;;1.60;;
34278;SDS011;20538;51.528;9.942;2023-04-03T07:47:47;2.25;;;1.17;;
34278;SDS011;20538;51.528;9.942;2023-04-03T07:50:13;3.53;;;1.63;;
34278;SDS011;20538;51.528;9.942;2023-04-03T07:52:39;8.13;;;1.80;;
34278;SDS011;20538;51.528;9.942;2023-04-03T07:55:05;5.35;;;1.55;;
34278;SDS011;20538;51.528;9.942;2023-04-03T07:57:31;5.30;;;1.98;;
34278;SDS011;20538;51.528;9.942;2023-04-03T07:59:57;6.40;;;1.27;;
34278;SDS011;20538;51.528;9.942;2023-04-03T08:02:22;6.03;;;1.35;;
34278;SDS011;20538;51.528;9.942;2023-04-03T08:04:48;4.15;;;1.20;;
34278;SDS011;20538;51.528;9.942;2023-04-03T08:07:14;8.57;;;1.40;;
34278;SDS011;20538;51.528;9.942;2023-04-03T08:09:40;7.97;;;1.20;;
34278;SDS011;20538;51.528;9.942;2023-04-03T08:12:06;8.05;;;1.60;;
34278;SDS011;20538;51.528;9.942;2023-04-03T08:14:32;6.53;;;2.10;;
34278;SDS011;20538;51.528;9.942;2023-04-03T08:17:00;4.15;;;1.55;;
34278;SDS011;20538;51.528;9.942;2023-04-03T08:19:26;9.45;;;1.70;;
34278;SDS011;20538;51.528;9.942;2023-04-03T08:21:55;5.40;;;1.20;;
34278;SDS011;20538;51.528;9.942;2023-04-03T08:24:23;8.10;;;1.67;;
34278;SDS011;20538;51.528;9.942;2023-04-03T08:26:49;5.53;;;1.13;;
34278;SDS011;20538;51.528;9.942;2023-04-03T08:29:15;5.88;;;1.33;;
34278;SDS011;20538;51.528;9.942;2023-04-03T08:31:43;2.78;;;1.10;;
34278;SDS011;20538;51.528;9.942;2023-04-03T08:34:13;6.15;;;1.30;;
34278;SDS011;20538;51.528;9.942;2023-04-03T08:36:42;4.82;;;1.63;;
34278;SDS011;20538;51.528;9.942;2023-04-03T08:39:08;2.80;;;1.08;;
34278;SDS011;20538;51.528;9.942;2023-04-03T08:41:38;5.63;;;1.58;;
34278;SDS011;20538;51.528;9.942;2023-04-03T08:47:19;4.97;;;1.17;;
34278;SDS011;20538;51.528;9.942;2023-04-03T08:50:04;7.72;;;1.80;;
34278;SDS011;20538;51.528;9.942;2023-04-03T08:55:21;3.65;;;1.23;;
34278;SDS011;20538;51.528;9.942;2023-04-03T08:58:03;5.57;;;1.38;;
34278;SDS011;20538;51.528;9.942;2023-04-03T09:00:58;6.22;;;1.40;;
34278;SDS011;20538;51.528;9.942;2023-04-03T09:03:28;3.47;;;0.80;;
34278;SDS011;20538;51.528;9.942;2023-04-03T09:08:37;2.70;;;1.13;;
34278;SDS011;20538;51.528;9.942;2023-04-03T09:11:26;6.13;;;1.50;;
34278;SDS011;20538;51.528;9.942;2023-04-03T09:17:04;2.80;;;0.80;;
34278;SDS011;20538;51.528;9.942;2023-04-03T09:19:41;5.00;;;1.27;;
34278;SDS011;20538;51.528;9.942;2023-04-03T09:22:18;4.50;;;1.10;;
34278;SDS011;20538;51.528;9.942;2023-04-03T09:27:45;4.90;;;0.82;;
34278;SDS011;20538;51.528;9.942;2023-04-03T09:30:18;5.40;;;1.38;;
34278;SDS011;20538;51.528;9.942;2023-04-03T09:32:47;3.83;;;1.20;;
34278;SDS011;20538;51.528;9.942;2023-04-03T09:35:16;4.70;;;1.23;;
34278;SDS011;20538;51.528;9.942;2023-04-03T09:37:49;3.25;;;1.13;;
34278;SDS011;20538;51.528;9.942;2023-04-03T09:42:51;3.00;;;1.23;;
34278;SDS011;20538;51.528;9.942;2023-04-03T09:45:22;4.00;;;1.00;;
34278;SDS011;20538;51.528;9.942;2023-04-03T09:50:36;3.25;;;0.82;;
34278;SDS011;20538;51.528;9.942;2023-04-03T09:53:04;5.25;;;1.17;;
34278;SDS011;20538;51.528;9.942;2023-04-03T09:55:33;3.88;;;1.25;;
34278;SDS011;20538;51.528;9.942;2023-04-03T09:58:22;3.42;;;0.90;;
34278;SDS011;20538;51.528;9.942;2023-04-03T10:04:14;1.20;;;0.80;;
34278;SDS011;20538;51.528;9.942;2023-04-03T10:06:42;6.78;;;1.33;;
34278;SDS011;20538;51.528;9.942;2023-04-03T10:09:28;4.97;;;1.15;;
34278;SDS011;20538;51.528;9.942;2023-04-03T10:14:36;1.40;;;0.73;;
34278;SDS011;20538;51.528;9.942;2023-04-03T10:24:58;2.55;;;1.10;;
34278;SDS011;20538;51.528;9.942;2023-04-03T10:27:31;2.17;;;1.15;;
34278;SDS011;20538;51.528;9.942;2023-04-03T10:30:09;2.45;;;0.90;;
34278;SDS011;20538;51.528;9.942;2023-04-03T10:41:12;4.22;;;1.17;;
34278;SDS011;20538;51.528;9.942;2023-04-03T10:44:24;4.45;;;1.10;;
34278;SDS011;20538;51.528;9.942;2023-04-03T10:46:49;5.60;;;1.30;;
34278;SDS011;20538;51.528;9.942;2023-04-03T10:49:25;7.78;;;1.40;;
34278;SDS011;20538;51.528;9.942;2023-04-03T10:55:04;8.32;;;2.45;;
34278;SDS011;20538;51.528;9.942;2023-04-03T10:57:38;5.63;;;1.33;;
34278;SDS011;20538;51.528;9.942;2023-04-03T11:00:07;3.70;;;1.40;;
34278;SDS011;20538;51.528;9.942;2023-04-03T11:02:52;4.95;;;1.10;;
34278;SDS011;20538;51.528;9.942;2023-04-03T11:05:34;5.47;;;1.23;;
34278;SDS011;20538;51.528;9.942;2023-04-03T11:11:16;4.95;;;1.10;;
34278;SDS011;20538;51.528;9.942;2023-04-03T11:16:26;3.88;;;1.13;;
34278;SDS011;20538;51.528;9.942;2023-04-03T11:19:04;6.20;;;1.20;;
34278;SDS011;20538;51.528;9.942;2023-04-03T11:22:25;3.08;;;1.08;;
34278;SDS011;20538;51.528;9.942;2023-04-03T11:24:31;5.75;;;1.75;;
34278;SDS011;20538;51.528;9.942;2023-04-03T11:26:59;4.00;;;1.10;;
34278;SDS011;20538;51.528;9.942;2023-04-03T11:29:32;4.00;;;1.10;;
34278;SDS011;20538;51.528;9.942;2023-04-03T11:34:44;4.40;;;1.50;;
34278;SDS011;20538;51.528;9.942;2023-04-03T11:37:17;3.28;;;1.20;;
34278;SDS011;20538;51.528;9.942;2023-04-03T11:40:16;5.70;;;1.55;;
34278;SDS011;20538;51.528;9.942;2023-04-03T11:42:54;5.97;;;1.50;;
34278;SDS011;20538;51.528;9.942;2023-04-03T11:45:34;3.75;;;1.02;;
34278;SDS011;20538;51.528;9.942;2023-04-03T11:48:42;3.00;;;1.02;;
34278;SDS011;20538;51.528;9.942;2023-04-03T11:53:42;4.55;;;1.50;;
34278;SDS011;20538;51.528;9.942;2023-04-03T12:04:09;3.47;;;1.20;;
34278;SDS011;20538;51.528;9.942;2023-04-03T12:09:21;6.28;;;1.08;;
34278;SDS011;20538;51.528;9.942;2023-04-03T12:11:51;3.25;;;1.10;;
34278;SDS011;20538;51.528;9.942;2023-04-03T12:14:17;4.43;;;2.08;;
34278;SDS011;20538;51.528;9.942;2023-04-03T12:16:44;4.07;;;1.13;;
34278;SDS011;20538;51.528;9.942;2023-04-03T12:22:06;3.72;;;0.93;;
34278;SDS011;20538;51.528;9.942;2023-04-03T12:24:37;2.30;;;0.90;;
34278;SDS011;20538;51.528;9.942;2023-04-03T12:29:55;6.03;;;1.63;;
34278;SDS011;20538;51.528;9.942;2023-04-03T12:46:44;5.88;;;1.50;;
34278;SDS011;20538;51.528;9.942;2023-04-03T12:49:22;6.60;;;1.50;;
34278;SDS011;20538;51.528;9.942;2023-04-03T12:51:55;1.85;;;1.00;;
34278;SDS011;20538;51.528;9.942;2023-04-03T12:57:11;5.70;;;1.00;;
34278;SDS011;20538;51.528;9.942;2023-04-03T12:59:41;6.13;;;1.30;;
34278;SDS011;20538;51.528;9.942;2023-04-03T13:02:15;5.45;;;1.05;;
34278;SDS011;20538;51.528;9.942;2023-04-03T13:04:43;5.00;;;1.35;;
34278;SDS011;20538;51.528;9.942;2023-04-03T13:07:30;5.15;;;1.42;;
34278;SDS011;20538;51.528;9.942;2023-04-03T13:12:46;5.70;;;1.33;;
34278;SDS011;20538;51.528;9.942;2023-04-03T13:15:13;7.07;;;1.20;;
34278;SDS011;20538;51.528;9.942;2023-04-03T13:17:44;4.70;;;1.17;;
34278;SDS011;20538;51.528;9.942;2023-04-03T13:20:17;5.43;;;1.50;;
34278;SDS011;20538;51.528;9.942;2023-04-03T13:22:50;2.40;;;1.33;;
34278;SDS011;20538;51.528;9.942;2023-04-03T13:25:30;5.32;;;1.60;;
34278;SDS011;20538;51.528;9.942;2023-04-03T13:27:59;6.22;;;1.00;;
34278;SDS011;20538;51.528;9.942;2023-04-03T13:30:28;3.58;;;1.38;;
34278;SDS011;20538;51.528;9.942;2023-04-03T13:32:56;5.05;;;1.60;;
34278;SDS011;20538;51.528;9.942;2023-04-03T13:35:31;5.82;;;1.63;;
34278;SDS011;20538;51.528;9.942;2023-04-03T13:38:01;4.55;;;1.40;;
34278;SDS011;20538;51.528;9.942;2023-04-03T13:40:30;4.63;;;1.00;;
34278;SDS011;20538;51.528;9.942;2023-04-03T13:43:17;2.45;;;1.00;;
34278;SDS011;20538;51.528;9.942;2023-04-03T13:46:02;3.10;;;1.20;;
34278;SDS011;20538;51.528;9.942;2023-04-03T13:48:39;5.45;;;1.17;;
34278;SDS011;20538;51.528;9.942;2023-04-03T13:53:58;4.45;;;1.25;;
34278;SDS011;20538;51.528;9.942;2023-04-03T13:56:35;2.75;;;1.45;;
34278;SDS011;20538;51.528;9.942;2023-04-03T14:01:46;3.53;;;1.05;;
34278;SDS011;20538;51.528;9.942;2023-04-03T14:04:25;2.10;;;0.93;;
34278;SDS011;20538;51.528;9.942;2023-04-03T14:06:53;4.70;;;0.82;;
34278;SDS011;20538;51.528;9.942;2023-04-03T14:09:20;6.47;;;1.30;;
34278;SDS011;20538;51.528;9.942;2023-04-03T14:11:50;5.13;;;1.50;;
34278;SDS011;20538;51.528;9.942;2023-04-03T14:14:21;4.90;;;1.23;;
34278;SDS011;20538;51.528;9.942;2023-04-03T14:16:56;4.07;;;1.33;;
34278;SDS011;20538;51.528;9.942;2023-04-03T14:19:26;3.70;;;0.90;;
34278;SDS011;20538;51.528;9.942;2023-04-03T14:21:54;3.15;;;1.15;;
34278;SDS011;20538;51.528;9.942;2023-04-03T14:24:21;1.70;;;1.02;;
34278;SDS011;20538;51.528;9.942;2023-04-03T14:26:47;3.05;;;1.08;;
34278;SDS011;20538;51.528;9.942;2023-04-03T14:29:14;3.13;;;1.20;;
34278;SDS011;20538;51.528;9.942;2023-04-03T14:31:41;2.83;;;1.48;;
34278;SDS011;20538;51.528;9.942;2023-04-03T14:34:09;6.10;;;1.30;;
34278;SDS011;20538;51.528;9.942;2023-04-03T14:36:36;4.60;;;1.30;;
34278;SDS011;20538;51.528;9.942;2023-04-03T14:39:03;4.03;;;1.40;;
34278;SDS011;20538;51.528;9.942;2023-04-03T14:41:29;5.05;;;1.77;;
34278;SDS011;20538;51.528;9.942;2023-04-03T14:43:55;6.82;;;1.38;;
34278;SDS011;20538;51.528;9.942;2023-04-03T14:48:56;5.47;;;1.53;;
34278;SDS011;20538;51.528;9.942;2023-04-03T14:51:22;3.20;;;1.58;;
34278;SDS011;20538;51.528;9.942;2023-04-03T14:53:47;8.18;;;1.30;;
34278;SDS011;20538;51.528;9.942;2023-04-03T14:56:16;3.85;;;1.15;;
34278;SDS011;20538;51.528;9.942;2023-04-03T14:58:48;4.55;;;1.42;;
34278;SDS011;20538;51.528;9.942;2023-04-03T15:01:17;2.85;;;1.20;;
34278;SDS011;20538;51.528;9.942;2023-04-03T15:03:43;3.03;;;1.40;;
34278;SDS011;20538;51.528;9.942;2023-04-03T15:06:10;5.40;;;1.30;;
34278;SDS011;20538;51.528;9.942;2023-04-03T15:08:37;4.22;;;1.20;;
34278;SDS011;20538;51.528;9.942;2023-04-03T15:11:05;4.40;;;1.00;;
34278;SDS011;20538;51.528;9.942;2023-04-03T15:13:32;4.32;;;1.20;;
34278;SDS011;20538;51.528;9.942;2023-04-03T15:15:57;6.90;;;1.60;;
34278;SDS011;20538;51.528;9.942;2023-04-03T15:18:24;4.00;;;1.42;;
34278;SDS011;20538;51.528;9.942;2023-04-03T15:20:51;1.95;;;1.25;;
34278;SDS011;20538;51.528;9.942;2023-04-03T15:23:18;3.08;;;1.20;;
34278;SDS011;20538;51.528;9.942;2023-04-03T15:25:47;4.93;;;1.50;;
34278;SDS011;20538;51.528;9.942;2023-04-03T15:28:25;4.22;;;1.33;;
34278;SDS011;20538;51.528;9.942;2023-04-03T15:30:55;9.00;;;1.73;;
34278;SDS011;20538;51.528;9.942;2023-04-03T15:33:22;3.17;;;1.38;;
34278;SDS011;20538;51.528;9.942;2023-04-03T15:35:48;2.35;;;0.90;;
34278;SDS011;20538;51.528;9.942;2023-04-03T15:38:13;6.03;;;1.10;;
34278;SDS011;20538;51.528;9.942;2023-04-03T15:40:39;3.17;;;1.15;;
34278;SDS011;20538;51.528;9.942;2023-04-03T15:43:06;2.95;;;1.13;;
34278;SDS011;20538;51.528;9.942;2023-04-03T15:45:32;3.30;;;1.05;;
34278;SDS011;20538;51.528;9.942;2023-04-03T15:47:59;5.47;;;1.90;;
34278;SDS011;20538;51.528;9.942;2023-04-03T15:50:26;3.03;;;1.30;;
34278;SDS011;20538;51.528;9.942;2023-04-03T15:52:53;8.27;;;1.40;;
34278;SDS011;20538;51.528;9.942;2023-04-03T15:55:20;5.13;;;1.88;;
34278;SDS011;20538;51.528;9.942;2023-04-03T15:57:47;3.58;;;1.33;;
34278;SDS011;20538;51.528;9.942;2023-04-03T16:00:12;2.25;;;1.08;;
34278;SDS011;20538;51.528;9.942;2023-04-03T16:02:39;5.30;;;1.80;;
34278;SDS011;20538;51.528;9.942;2023-04-03T16:05:05;4.20;;;1.70;;
34278;SDS011;20538;51.528;9.942;2023-04-03T16:07:31;3.97;;;1.42;;
34278;SDS011;20538;51.528;9.942;2023-04-03T16:09:57;2.25;;;1.35;;
34278;SDS011;20538;51.528;9.942;2023-04-03T16:12:22;4.80;;;1.50;;
34278;SDS011;20538;51.528;9.942;2023-04-03T16:14:48;5.53;;;1.30;;
34278;SDS011;20538;51.528;9.942;2023-04-03T16:17:13;3.90;;;1.40;;
34278;SDS011;20538;51.528;9.942;2023-04-03T16:19:39;4.15;;;1.00;;
34278;SDS011;20538;51.528;9.942;2023-04-03T16:22:05;3.60;;;1.13;;
34278;SDS011;20538;51.528;9.942;2023-04-03T16:24:31;3.25;;;1.38;;
34278;SDS011;20538;51.528;9.942;2023-04-03T16:26:57;4.43;;;1.50;;
34278;SDS011;20538;51.528;9.942;2023-04-03T16:29:23;6.90;;;1.42;;
34278;SDS011;20538;51.528;9.942;2023-04-03T16:31:48;9.23;;;1.85;;
34278;SDS011;20538;51.528;9.942;2023-04-03T16:34:14;3.78;;;1.55;;
34278;SDS011;20538;51.528;9.942;2023-04-03T16:36:41;4.78;;;1.20;;
34278;SDS011;20538;51.528;9.942;2023-04-03T16:39:06;5.78;;;1.80;;